createdAt,value
2018-09-01T00:03:24.925Z,100281.67
2018-09-01T00:08:08.310Z,100277.71
2018-09-01T00:12:51.688Z,100277.16
2018-09-01T00:17:36.512Z,100277.23
2018-09-01T00:22:22.498Z,100278.50
2018-09-01T00:27:06.326Z,100276.25
2018-09-01T00:31:50.853Z,100275.19
2018-09-01T00:36:34.039Z,100279.16
2018-09-01T00:41:17.428Z,100274.76
2018-09-01T00:46:00.672Z,100278.94
2018-09-01T00:50:44.059Z,100282.62
2018-09-01T00:55:30.460Z,100279.69
2018-09-01T01:00:13.913Z,100279.53
2018-09-01T01:04:57.326Z,100274.05
2018-09-01T01:09:40.817Z,100269.09
2018-09-01T01:14:25.339Z,100271.08
2018-09-01T01:19:08.830Z,100275.34
2018-09-01T01:23:55.882Z,100274.14
2018-09-01T01:28:39.310Z,100273.09
2018-09-01T01:33:22.550Z,100275.75
2018-09-01T01:38:06.014Z,100271.37
2018-09-01T01:42:50.478Z,100265.13
2018-09-01T01:47:40.531Z,100259.04
2018-09-01T01:52:24.995Z,100257.35
2018-09-01T01:57:08.313Z,100259.58
2018-09-01T02:01:52.862Z,100265.67
2018-09-01T02:06:36.294Z,100266.82
2018-09-01T02:11:22.810Z,100266.46
2018-09-01T02:16:06.138Z,100262.15
2018-09-01T02:20:49.422Z,100269.84
2018-09-01T02:25:33.885Z,100263.48
2018-09-01T02:30:17.295Z,100266.36
2018-09-01T02:35:00.962Z,100266.38
2018-09-01T02:39:45.082Z,100270.08
2018-09-01T02:44:28.817Z,100262.62
2018-09-01T02:49:12.303Z,100268.31
2018-09-01T02:53:55.668Z,100263.30
2018-09-01T02:58:39.133Z,100269.27
2018-09-01T03:03:22.574Z,100262.95
2018-09-01T03:08:06.058Z,100256.03
2018-09-01T03:12:49.641Z,100258.02
2018-09-01T03:17:32.873Z,100265.33
2018-09-01T03:22:16.345Z,100258.16
2018-09-01T03:26:59.790Z,100263.85
2018-09-01T03:31:43.198Z,100259.59
2018-09-01T03:36:26.649Z,100272.52
2018-09-01T03:41:10.111Z,100278.73
2018-09-01T03:45:53.531Z,100278.39
2018-09-01T03:50:37.043Z,100287.16
2018-09-01T03:55:24.065Z,100282.75
2018-09-01T04:00:07.464Z,100291.00
2018-09-01T04:04:51.111Z,100291.64
2018-09-01T04:09:34.400Z,100295.73
2018-09-01T04:14:18.219Z,100295.61
2018-09-01T04:19:08.173Z,100294.14
2018-09-01T04:23:51.702Z,100296.06
2018-09-01T04:28:34.980Z,100286.77
2018-09-01T04:33:18.643Z,100285.09
2018-09-01T04:38:02.038Z,100296.23
2018-09-01T04:42:50.208Z,100286.30
2018-09-01T04:47:33.627Z,100286.91
2018-09-01T04:52:17.120Z,100290.97
2018-09-01T04:57:00.538Z,100287.81
2018-09-01T05:01:47.512Z,100288.44
2018-09-01T05:06:30.873Z,100277.36
2018-09-01T05:12:43.741Z,100279.02
2018-09-01T05:17:27.109Z,100281.67
2018-09-01T05:22:14.118Z,100279.33
2018-09-01T05:26:58.747Z,100278.30
2018-09-01T05:31:43.304Z,100283.45
2018-09-01T05:36:26.655Z,100281.03
2018-09-01T05:41:13.305Z,100280.91
2018-09-01T05:45:57.833Z,100280.42
2018-09-01T05:50:41.575Z,100279.70
2018-09-01T05:55:25.070Z,100281.86
2018-09-01T06:00:09.241Z,100278.64
2018-09-01T06:04:55.826Z,100267.11
2018-09-01T06:09:39.816Z,100265.03
2018-09-01T06:14:24.457Z,100259.32
2018-09-01T06:19:07.984Z,100265.11
2018-09-01T06:23:51.464Z,100268.88
2018-09-01T06:28:42.035Z,100274.92
2018-09-01T06:33:28.942Z,100279.67
2018-09-01T06:38:12.465Z,100278.83
2018-09-01T06:42:59.352Z,100278.55
2018-09-01T06:47:42.919Z,100281.52
2018-09-01T06:52:26.426Z,100284.55
2018-09-01T06:57:10.443Z,100283.59
2018-09-01T07:01:56.978Z,100282.69
2018-09-01T07:06:40.369Z,100277.14
2018-09-01T07:11:25.355Z,100279.86
2018-09-01T07:16:08.784Z,100283.73
2018-09-01T07:20:53.637Z,100284.59
2018-09-01T07:25:38.089Z,100273.80
2018-09-01T07:30:21.701Z,100272.08
2018-09-01T07:35:04.862Z,100273.10
2018-09-01T07:39:48.030Z,100270.31
2018-09-01T07:44:37.006Z,100269.48
2018-09-01T07:49:20.455Z,100260.69
2018-09-01T07:54:04.641Z,100264.20
2018-09-01T07:58:48.149Z,100263.38
2018-09-01T08:03:34.831Z,100269.33
2018-09-01T08:08:18.324Z,100259.61
2018-09-01T08:13:05.846Z,100263.81
2018-09-01T08:17:49.047Z,100252.14
2018-09-01T08:22:36.855Z,100248.28
2018-09-01T08:27:20.284Z,100251.02
2018-09-01T08:32:03.691Z,100256.00
2018-09-01T08:36:47.122Z,100246.35
2018-09-01T08:41:31.566Z,100246.83
2018-09-01T08:46:15.040Z,100244.68
2018-09-01T08:51:03.259Z,100245.08
2018-09-01T08:55:53.443Z,100240.37
2018-09-01T09:00:36.945Z,100242.80
2018-09-01T09:05:20.508Z,100239.32
2018-09-01T09:10:04.430Z,100239.48
2018-09-01T09:14:55.799Z,100237.48
2018-09-01T09:19:39.137Z,100229.03
2018-09-01T09:24:22.655Z,100222.70
2018-09-01T09:29:12.222Z,100228.39
2018-09-01T09:34:00.406Z,100216.96
2018-09-01T09:38:45.379Z,100222.48
2018-09-01T09:43:32.776Z,100222.83
2018-09-01T09:48:17.482Z,100217.92
2018-09-01T09:53:02.671Z,100217.72
2018-09-01T09:57:45.988Z,100223.41
2018-09-01T10:02:29.642Z,100211.17
2018-09-01T10:07:12.874Z,100204.49
2018-09-01T10:11:56.604Z,100210.88
2018-09-01T10:16:41.404Z,100215.63
2018-09-01T10:21:25.948Z,100207.53
2018-09-01T10:26:13.504Z,100204.67
2018-09-01T10:30:59.730Z,100206.49
2018-09-01T10:35:43.188Z,100199.95
2018-09-01T10:40:27.764Z,100206.05
2018-09-01T10:45:11.194Z,100205.48
2018-09-01T10:49:54.671Z,100194.87
2018-09-01T10:54:38.158Z,100200.23
2018-09-01T10:59:26.697Z,100202.64
2018-09-01T11:04:10.278Z,100199.66
2018-09-01T11:08:53.775Z,100187.84
2018-09-01T11:13:37.359Z,100192.47
2018-09-01T11:18:20.724Z,100189.91
2018-09-01T11:23:05.104Z,100188.76
2018-09-01T11:27:48.652Z,100191.48
2018-09-01T11:32:33.260Z,100185.63
2018-09-01T11:37:16.751Z,100182.85
2018-09-01T11:42:01.954Z,100187.56
2018-09-01T11:46:45.498Z,100177.14
2018-09-01T11:51:33.243Z,100189.28
2018-09-01T11:56:18.594Z,100186.28
2018-09-01T12:01:08.693Z,100185.75
2018-09-01T12:05:52.204Z,100177.38
2018-09-01T12:10:35.806Z,100185.89
2018-09-01T12:15:19.400Z,100190.30
2018-09-01T12:25:27.427Z,100196.98
2018-09-01T12:30:17.825Z,100180.66
2018-09-01T12:35:10.066Z,100185.71
2018-09-01T12:39:57.877Z,100185.41
2018-09-01T12:44:41.411Z,100184.80
2018-09-01T12:49:25.040Z,100184.83
2018-09-01T12:54:09.505Z,100189.76
2018-09-01T12:58:52.919Z,100179.80
2018-09-01T13:03:38.075Z,100171.55
2018-09-01T13:08:21.245Z,100175.34
2018-09-01T13:13:08.551Z,100173.58
2018-09-01T13:17:52.012Z,100172.95
2018-09-01T13:22:39.605Z,100171.16
2018-09-01T13:27:23.179Z,100170.83
2018-09-01T13:32:10.175Z,100182.52
2018-09-01T13:36:53.597Z,100192.05
2018-09-01T13:41:38.090Z,100186.31
2018-09-01T13:46:21.510Z,100195.81
2018-09-01T13:51:08.257Z,100189.91
2018-09-01T13:55:51.771Z,100186.22
2018-09-01T14:00:35.071Z,100192.67
2018-09-01T14:05:18.499Z,100191.69
2018-09-01T14:10:05.704Z,100194.27
2018-09-01T14:14:49.246Z,100198.59
2018-09-01T14:19:32.521Z,100208.28
2018-09-01T14:24:16.280Z,100210.03
2018-09-01T14:28:59.680Z,100214.48
2018-09-01T14:33:43.373Z,100216.26
2018-09-01T14:38:26.926Z,100221.22
2018-09-01T14:43:11.549Z,100225.10
2018-09-01T14:47:54.847Z,100226.97
2018-09-01T14:52:38.536Z,100226.27
2018-09-01T14:57:21.775Z,100225.10
2018-09-01T15:02:09.938Z,100233.74
2018-09-01T15:06:53.230Z,100228.83
2018-09-01T15:11:36.967Z,100230.19
2018-09-01T15:16:20.421Z,100232.36
2018-09-01T15:21:08.631Z,100230.34
2018-09-01T15:25:52.359Z,100231.87
2018-09-01T15:30:36.996Z,100227.57
2018-09-01T15:35:22.972Z,100229.78
2018-09-01T15:40:07.022Z,100229.58
2018-09-01T15:44:50.311Z,100229.75
2018-09-01T15:49:38.289Z,100226.55
2018-09-01T15:54:21.796Z,100236.00
2018-09-01T15:59:05.287Z,100242.84
2018-09-01T16:03:48.802Z,100242.05
2018-09-01T16:08:32.133Z,100243.03
2018-09-01T16:13:19.891Z,100255.00
2018-09-01T16:18:03.251Z,100248.73
2018-09-01T16:22:47.867Z,100246.53
2018-09-01T16:27:31.328Z,100248.01
2018-09-01T16:32:17.985Z,100251.41
2018-09-01T16:37:01.389Z,100255.06
2018-09-01T16:41:48.319Z,100254.36
2018-09-01T16:46:31.644Z,100261.51
2018-09-01T16:51:16.417Z,100258.73
2018-09-01T16:55:59.870Z,100259.30
2018-09-01T17:00:47.047Z,100267.44
2018-09-01T17:05:30.342Z,100265.19
2018-09-01T17:10:17.671Z,100258.96
2018-09-01T17:15:01.099Z,100244.37
2018-09-01T17:19:47.927Z,100261.73
2018-09-01T17:24:31.356Z,100265.77
2018-09-01T17:29:14.854Z,100271.92
2018-09-01T17:33:58.274Z,100273.44
2018-09-01T17:38:41.746Z,100288.05
2018-09-01T17:43:25.310Z,100287.42
2018-09-01T17:48:08.824Z,100295.51
2018-09-01T17:52:57.519Z,100293.59
2018-09-01T17:57:41.959Z,100295.49
2018-09-01T18:02:28.628Z,100286.31
2018-09-01T18:07:11.843Z,100291.58
2018-09-01T18:11:56.382Z,100289.68
2018-09-01T18:16:39.869Z,100295.13
2018-09-01T18:21:23.577Z,100303.26
2018-09-01T18:26:07.471Z,100307.55
2018-09-01T18:30:51.149Z,100309.76
2018-09-01T18:35:34.644Z,100316.98
2018-09-01T18:40:18.068Z,100314.27
2018-09-01T18:45:03.434Z,100319.28
2018-09-01T18:49:47.950Z,100308.72
2018-09-01T18:54:32.282Z,100318.45
2018-09-01T18:59:16.030Z,100313.58
2018-09-01T19:04:01.075Z,100313.09
2018-09-01T19:08:44.810Z,100314.45
2018-09-01T19:13:28.974Z,100312.63
2018-09-01T19:18:12.917Z,100319.52
2018-09-01T19:22:57.199Z,100311.73
2018-09-01T19:27:40.589Z,100299.43
2018-09-01T19:32:27.701Z,100300.22
2018-09-01T19:37:11.191Z,100293.98
2018-09-01T19:41:54.743Z,100296.40
2018-09-01T19:46:38.283Z,100296.89
2018-09-01T19:51:21.877Z,100295.66
2018-09-01T19:56:05.269Z,100299.55
2018-09-01T20:00:52.690Z,100301.54
2018-09-01T20:05:36.222Z,100294.48
2018-09-01T20:10:23.550Z,100292.37
2018-09-01T20:15:06.943Z,100289.06
2018-09-01T20:19:54.328Z,100287.58
2018-09-01T20:24:37.806Z,100288.39
2018-09-01T20:29:24.759Z,100285.67
2018-09-01T20:34:08.136Z,100281.35
2018-09-01T20:38:51.803Z,100284.70
2018-09-01T20:43:35.187Z,100283.24
2018-09-01T20:48:18.616Z,100283.24
2018-09-01T20:53:01.972Z,100283.08
2018-09-01T20:57:45.243Z,100279.97
2018-09-01T21:02:32.184Z,100282.22
2018-09-01T21:07:15.727Z,100285.16
2018-09-01T21:11:59.418Z,100283.41
2018-09-01T21:16:42.874Z,100276.95
2018-09-01T21:21:26.481Z,100263.87
2018-09-01T21:26:09.937Z,100265.83
2018-09-01T21:30:54.297Z,100270.15
2018-09-01T21:35:37.679Z,100272.73
2018-09-01T21:40:22.002Z,100266.92
2018-09-01T21:45:05.351Z,100262.07
2018-09-01T21:49:49.069Z,100260.77
2018-09-01T21:54:32.342Z,100259.64
2018-09-01T21:59:15.761Z,100261.39
2018-09-01T22:03:59.202Z,100254.07
2018-09-01T22:08:45.657Z,100246.06
2018-09-01T22:13:29.022Z,100244.03
2018-09-01T22:18:12.384Z,100244.13
2018-09-01T22:22:55.986Z,100249.35
2018-09-01T22:27:39.365Z,100241.90
2018-09-01T22:32:22.791Z,100238.00
2018-09-01T22:37:06.197Z,100237.39
2018-09-01T22:41:50.774Z,100235.33
2018-09-01T22:46:34.182Z,100232.75
2018-09-01T22:51:21.876Z,100230.92
2018-09-01T22:56:05.354Z,100231.91
2018-09-01T23:00:49.766Z,100225.44
2018-09-01T23:05:33.205Z,100230.42
2018-09-01T23:10:20.977Z,100228.58
2018-09-01T23:15:04.230Z,100233.91
2018-09-01T23:19:47.722Z,100225.86
2018-09-01T23:24:31.170Z,100228.45
2018-09-01T23:29:17.602Z,100233.19
2018-09-01T23:34:00.880Z,100234.67
2018-09-01T23:38:45.390Z,100244.58
2018-09-01T23:43:28.717Z,100245.27
2018-09-01T23:48:15.813Z,100256.66
2018-09-01T23:52:59.126Z,100245.72
2018-09-01T23:57:42.583Z,100260.99
